Time;durP1;ratioP1;P1;durP2;ratioP2;P2;SDS_P1;SDS_P2;PMS_P1;PMS_P2;Temp;Humidity;BMP_temperature;BMP_pressure;BME280_temperature;BME280_humidity;BME280_pressure;Samples;Min_cycle;Max_cycle;Signal;HPM_P1;HPM_P2
2022/02/10 00:06:58;;;;;;;8.20;5.95;;;;;;;9.80;100.00;102050.63;5225397;28;20033;-74
2022/02/10 00:17:32;;;;;;;8.32;5.10;;;;;;;9.82;100.00;102045.31;5227678;28;20045;-73
2022/02/10 00:20:30;;;;;;;6.57;5.85;;;;;;;9.82;100.00;102040.91;5226420;28;20517;-74
2022/02/10 00:23:19;;;;;;;6.55;5.63;;;;;;;9.85;100.00;102038.13;5225179;28;20492;-75
2022/02/10 00:34:28;;;;;;;8.60;5.97;;;;;;;9.75;100.00;102008.22;5227747;28;20037;-74
2022/02/10 00:39:54;;;;;;;8.23;6.13;;;;;;;9.79;100.00;102014.94;5226662;28;20037;-73
2022/02/10 00:42:25;;;;;;;7.35;6.07;;;;;;;9.77;100.00;102011.56;5225705;28;20045;-74
2022/02/10 00:44:56;;;;;;;8.90;6.57;;;;;;;9.80;100.00;102016.59;5227507;28;20029;-73
2022/02/10 00:47:29;;;;;;;8.65;6.50;;;;;;;9.71;100.00;101999.72;5222533;28;20075;-75
2022/02/10 00:50:03;;;;;;;7.85;6.03;;;;;;;9.73;100.00;102007.44;5227272;28;20025;-74
2022/02/10 00:52:40;;;;;;;8.57;6.72;;;;;;;9.75;100.00;102000.34;5226138;28;20108;-74
2022/02/10 00:55:16;;;;;;;7.10;5.78;;;;;;;9.75;100.00;102002.97;5227028;28;20065;-75
2022/02/10 00:57:47;;;;;;;7.05;6.20;;;;;;;9.74;100.00;101993.44;5225305;28;20057;-74
2022/02/10 01:14:31;;;;;;;11.35;8.02;;;;;;;9.60;100.00;101957.69;5225726;28;20486;-74
2022/02/10 01:31:10;;;;;;;12.07;8.23;;;;;;;9.58;100.00;101941.22;5227570;28;20026;-73
2022/02/10 01:33:43;;;;;;;10.98;8.88;;;;;;;9.57;100.00;101930.88;5228930;28;20049;-73
2022/02/10 01:36:14;;;;;;;10.80;8.27;;;;;;;9.56;100.00;101930.03;5209225;28;20021;-73
2022/02/10 01:38:45;;;;;;;11.75;8.75;;;;;;;9.53;100.00;101921.53;5224246;28;20069;-74
2022/02/10 01:57:46;;;;;;;11.98;9.10;;;;;;;9.49;100.00;101911.25;5224623;28;20072;-73
2022/02/10 02:04:00;;;;;;;12.27;9.20;;;;;;;9.39;100.00;101877.94;5231557;28;20029;-73
2022/02/10 02:06:41;;;;;;;12.27;9.82;;;;;;;9.33;100.00;101868.72;5227285;28;20296;-75
2022/02/10 02:09:15;;;;;;;12.98;9.98;;;;;;;9.31;100.00;101862.72;5228194;28;20483;-73
2022/02/10 02:11:51;;;;;;;14.15;9.52;;;;;;;9.30;100.00;101863.66;5230729;28;20040;-74
2022/02/10 02:14:24;;;;;;;13.45;10.55;;;;;;;9.26;100.00;101865.63;5231093;28;20029;-74
2022/02/10 02:17:00;;;;;;;12.82;10.55;;;;;;;9.26;100.00;101867.41;5228322;28;20029;-74
2022/02/10 02:19:32;;;;;;;13.13;10.13;;;;;;;9.21;100.00;101862.47;5228934;28;20049;-74
2022/02/10 02:22:08;;;;;;;15.85;9.93;;;;;;;9.26;100.00;101865.63;5231271;28;20046;-74
2022/02/10 02:24:39;;;;;;;11.60;9.98;;;;;;;9.15;100.00;101865.47;5228478;28;20597;-74
2022/02/10 02:27:16;;;;;;;12.93;10.32;;;;;;;9.14;100.00;101863.78;5228950;28;20050;-74
2022/02/10 02:29:58;;;;;;;13.18;9.85;;;;;;;9.12;100.00;101855.19;5225467;28;20041;-74
2022/02/10 02:32:36;;;;;;;11.80;9.57;;;;;;;9.17;100.00;101857.53;5228389;28;20025;-74
2022/02/10 02:38:13;;;;;;;12.23;9.60;;;;;;;9.07;100.00;101851.19;5228002;28;20039;-74
2022/02/10 03:06:24;;;;;;;13.43;9.52;;;;;;;8.96;100.00;101823.94;5226529;28;20050;-73
2022/02/10 03:08:59;;;;;;;14.48;10.60;;;;;;;8.96;100.00;101823.09;5228161;28;20402;-73
2022/02/10 03:11:31;;;;;;;13.82;10.60;;;;;;;8.90;100.00;101821.72;5227789;28;20030;-73
2022/02/10 03:14:16;;;;;;;15.95;10.70;;;;;;;8.92;100.00;101832.91;5230182;28;20029;-73
2022/02/10 03:17:23;;;;;;;14.70;10.63;;;;;;;8.91;100.00;101827.78;5226066;28;20044;-73
2022/02/10 03:20:00;;;;;;;13.07;10.48;;;;;;;8.93;100.00;101831.13;5224788;28;20108;-73
2022/02/10 03:23:00;;;;;;;14.07;9.80;;;;;;;8.91;100.00;101833.03;5228443;28;20117;-73
2022/02/10 04:11:04;;;;;;;20.45;13.07;;;;;;;8.50;100.00;101818.94;5227455;28;20116;-73
2022/02/10 04:21:48;;;;;;;18.77;13.63;;;;;;;8.47;100.00;101826.13;5227235;28;20095;-73
2022/02/10 04:27:20;;;;;;;22.48;14.70;;;;;;;8.42;100.00;101815.13;5225264;28;20039;-73
2022/02/10 04:30:18;;;;;;;22.35;15.23;;;;;;;8.42;100.00;101817.72;5223899;28;20558;-72
2022/02/10 04:42:46;;;;;;;21.13;15.68;;;;;;;8.29;100.00;101797.53;5226967;28;20399;-73
2022/02/10 05:01:09;;;;;;;24.30;16.75;;;;;;;8.16;100.00;101786.16;5222552;28;20096;-73
2022/02/10 05:06:58;;;;;;;25.92;17.85;;;;;;;8.13;100.00;101786.31;5222812;28;20056;-72
2022/02/10 05:17:48;;;;;;;27.33;17.73;;;;;;;8.10;100.00;101790.88;5224587;28;20025;-73
2022/02/10 05:34:01;;;;;;;25.25;18.73;;;;;;;8.13;100.00;101767.22;5222545;28;20052;-74
2022/02/10 05:36:34;;;;;;;25.23;18.52;;;;;;;8.07;100.00;101758.00;5223918;28;20072;-74
2022/02/10 05:58:06;;;;;;;29.80;20.55;;;;;;;8.05;100.00;101752.84;5228162;28;20044;-74
2022/02/10 06:56:46;;;;;;;34.08;24.27;;;;;;;8.04;100.00;101795.53;5227283;28;20061;-73
2022/02/10 07:10:14;;;;;;;38.15;27.67;;;;;;;8.04;100.00;101800.75;5225199;28;20033;-75
2022/02/10 07:52:29;;;;;;;52.00;33.80;;;;;;;8.08;100.00;101819.69;5228625;28;20041;-75
2022/02/10 07:57:46;;;;;;;53.22;34.10;;;;;;;8.15;100.00;101831.47;5232624;28;20281;-76
2022/02/10 08:00:33;;;;;;;54.47;34.13;;;;;;;8.06;100.00;101821.53;5232192;28;20120;-75
2022/02/10 08:26:53;;;;;;;58.97;35.90;;;;;;;8.13;100.00;101866.41;5225178;28;20041;-77
2022/02/10 08:57:10;;;;;;;50.07;35.13;;;;;;;8.19;100.00;101889.56;5187185;28;20041;-75
2022/02/10 09:02:41;;;;;;;50.10;34.63;;;;;;;8.14;100.00;101892.41;5229574;28;20154;-75
2022/02/10 09:05:26;;;;;;;48.55;34.40;;;;;;;8.17;100.00;101894.84;5231948;28;20041;-76
2022/02/10 09:08:18;;;;;;;54.08;37.05;;;;;;;8.17;100.00;101899.22;5229317;28;20037;-77
2022/02/10 09:16:38;;;;;;;53.63;37.70;;;;;;;8.08;100.00;101884.94;5228307;28;20116;-77
2022/02/10 09:47:42;;;;;;;32.58;25.63;;;;;;;8.30;100.00;101936.75;5234691;28;20471;-77
2022/02/10 09:54:12;;;;;;;22.42;17.50;;;;;;;8.31;100.00;101940.22;5234246;28;20068;-76
2022/02/10 10:01:16;;;;;;;18.23;14.80;;;;;;;8.48;100.00;101943.53;5233721;28;20136;-77
2022/02/10 10:04:09;;;;;;;16.55;12.82;;;;;;;8.53;100.00;101940.69;5233370;28;20539;-76
2022/02/10 10:09:42;;;;;;;16.90;12.85;;;;;;;8.42;100.00;101951.75;5234157;28;20045;-76
2022/02/10 10:15:27;;;;;;;14.88;12.00;;;;;;;8.61;100.00;101955.91;5233482;28;20072;-77
2022/02/10 10:27:08;;;;;;;11.52;9.38;;;;;;;8.65;100.00;101978.28;5233982;28;20417;-76
2022/02/10 10:48:29;;;;;;;14.88;9.30;;;;;;;8.97;100.00;101981.59;5234766;28;20033;-76
2022/02/10 10:50:18;;;;;;;10.68;8.88;;;;;;;9.00;100.00;101991.88;5234471;28;20552;-76
2022/02/10 10:53:18;;;;;;;9.07;7.93;;;;;;;8.93;100.00;101990.56;5234664;28;20088;-74
2022/02/10 10:58:33;;;;;;;9.75;8.73;;;;;;;8.99;100.00;101993.66;5235254;28;20147;-76
2022/02/10 11:04:19;;;;;;;13.43;9.52;;;;;;;9.04;100.00;101984.69;5232761;28;20122;-76
2022/02/10 11:38:23;;;;;;;11.60;8.57;;;;;;;9.31;100.00;101988.25;5231317;28;20033;-76
2022/02/10 11:41:07;;;;;;;11.32;8.70;;;;;;;9.26;100.00;101990.31;5232526;28;20520;-75
2022/02/10 12:29:15;;;;;;;10.95;7.47;;;;;;;9.73;100.00;101962.97;5231205;28;20037;-76
2022/02/10 12:31:37;;;;;;;6.68;3.85;;;;;;;9.64;100.00;101967.00;5227916;28;20076;-74
2022/02/10 12:34:44;;;;;;;8.43;3.72;;;;;;;9.63;100.00;101993.28;5229696;28;20071;-74
2022/02/10 14:17:14;;;;;;;6.82;1.80;;;;;;;9.48;100.00;101961.06;5197222;28;20682;-75
2022/02/10 14:20:13;;;;;;;7.05;2.17;;;;;;;9.46;100.00;101970.78;5186808;28;20029;-75
2022/02/10 14:22:51;;;;;;;11.32;2.55;;;;;;;9.45;100.00;101964.69;5206178;28;20072;-74
2022/02/10 14:25:45;;;;;;;6.15;1.60;;;;;;;9.45;100.00;101976.94;5206786;28;20092;-75
2022/02/10 14:28:18;;;;;;;5.60;2.03;;;;;;;9.42;100.00;101974.50;5204747;28;20033;-75
2022/02/10 14:30:52;;;;;;;18.43;3.40;;;;;;;9.40;100.00;101979.00;5206639;28;20033;-75
2022/02/10 14:33:30;;;;;;;6.63;1.70;;;;;;;9.34;100.00;101984.63;5204619;28;20456;-74
2022/02/10 14:36:20;;;;;;;8.52;2.08;;;;;;;9.36;100.00;101980.13;5206480;28;20108;-75
2022/02/10 16:11:03;;;;;;;10.88;3.85;;;;;;;8.49;100.00;101996.63;5202965;28;20046;-74
2022/02/10 16:14:36;;;;;;;10.82;3.22;;;;;;;8.49;100.00;101997.47;5202185;28;20021;-74
2022/02/10 16:17:03;;;;;;;15.32;4.18;;;;;;;8.47;100.00;102003.69;5200979;28;20068;-74
2022/02/10 16:19:36;;;;;;;15.85;4.50;;;;;;;8.44;100.00;102003.88;5203990;28;20218;-74
2022/02/10 16:25:00;;;;;;;10.57;2.85;;;;;;;8.32;100.00;102001.94;5203568;28;20057;-75
2022/02/10 16:27:33;;;;;;;12.35;2.92;;;;;;;8.31;100.00;101995.88;5199366;28;20041;-75
2022/02/10 16:30:13;;;;;;;8.65;2.70;;;;;;;8.27;100.00;102007.41;5183768;28;20030;-74
2022/02/10 16:32:44;;;;;;;8.65;2.50;;;;;;;8.20;100.00;101993.03;5200748;28;20104;-74
2022/02/10 16:35:16;;;;;;;10.65;2.53;;;;;;;8.22;100.00;102009.44;5199484;28;20053;-74
2022/02/10 16:37:47;;;;;;;7.63;2.10;;;;;;;8.18;100.00;102005.31;5202388;28;20292;-74
2022/02/10 16:40:18;;;;;;;10.55;2.80;;;;;;;8.09;100.00;101998.00;5199066;28;20079;-74
2022/02/10 16:42:51;;;;;;;8.82;2.65;;;;;;;8.14;100.00;102003.81;5200438;28;20643;-74
2022/02/10 16:45:23;;;;;;;12.95;2.88;;;;;;;8.16;100.00;102010.63;5198839;28;20030;-74
2022/02/10 16:47:56;;;;;;;11.73;2.28;;;;;;;8.09;100.00;102009.28;5199309;28;20029;-74
2022/02/10 16:50:27;;;;;;;7.80;2.38;;;;;;;8.02;100.00;102000.09;5199900;28;20022;-74
2022/02/10 16:53:03;;;;;;;11.20;2.50;;;;;;;7.94;100.00;101995.31;5198947;28;20080;-74
2022/02/10 16:55:43;;;;;;;13.15;2.58;;;;;;;7.93;100.00;102008.47;5201779;28;20703;-74
2022/02/10 17:27:09;;;;;;;4.65;1.10;;;;;;;7.67;100.00;101987.25;5188161;28;20034;-74
2022/02/10 17:30:12;;;;;;;;;;;;;;;8.16;100.00;101987.13;5199512;28;20489;-74
2022/02/10 17:32:51;;;;;;;6.30;1.70;;;;;;;7.70;100.00;101994.06;5200712;28;19987;-74
2022/02/10 17:44:08;;;;;;;9.15;1.98;;;;;;;7.57;100.00;102002.53;5205842;28;20034;-74
2022/02/10 17:46:53;;;;;;;8.82;1.98;;;;;;;7.56;100.00;102008.69;5200608;28;20030;-75
2022/02/10 17:52:16;;;;;;;6.65;2.20;;;;;;;7.46;100.00;102001.41;5202277;28;20479;-75
2022/02/10 17:54:48;;;;;;;9.30;1.80;;;;;;;7.45;100.00;102011.00;5202930;28;20026;-75
2022/02/10 17:57:19;;;;;;;4.30;1.40;;;;;;;7.46;100.00;102004.03;5203845;28;20033;-75
2022/02/10 17:59:51;;;;;;;6.05;1.88;;;;;;;7.44;100.00;102017.16;5203981;28;20054;-75
2022/02/10 18:02:22;;;;;;;10.05;2.45;;;;;;;7.45;100.00;102029.25;5206672;28;20022;-75
2022/02/10 18:04:54;;;;;;;5.88;2.00;;;;;;;7.42;100.00;102047.66;5202743;28;20526;-75
2022/02/10 18:07:26;;;;;;;6.75;1.95;;;;;;;7.42;100.00;102049.44;5204223;28;20135;-75
2022/02/10 18:10:23;;;;;;;4.80;1.55;;;;;;;7.39;100.00;102049.63;5203629;28;20082;-75
2022/02/10 18:15:35;;;;;;;12.55;2.60;;;;;;;7.37;100.00;102062.72;5201218;28;20060;-75
2022/02/10 18:18:17;;;;;;;6.75;2.00;;;;;;;7.35;100.00;102063.72;5201151;28;20105;-74
2022/02/10 18:20:55;;;;;;;9.15;2.22;;;;;;;7.38;100.00;102064.41;5200362;28;20399;-75
2022/02/10 18:23:36;;;;;;;8.93;2.75;;;;;;;7.28;100.00;102058.00;5202891;28;20036;-75
2022/02/10 18:26:15;;;;;;;8.98;2.67;;;;;;;7.35;100.00;102061.97;5204039;28;20407;-75
2022/02/10 18:34:49;;;;;;;9.70;2.50;;;;;;;7.29;100.00;102054.47;5204611;28;20034;-75
2022/02/10 19:10:20;;;;;;;8.27;2.47;;;;;;;7.02;100.00;102077.56;5217165;28;20042;-74
2022/02/10 19:12:58;;;;;;;9.02;2.90;;;;;;;7.00;100.00;102084.59;5220161;28;20102;-74
2022/02/10 19:15:35;;;;;;;10.32;2.63;;;;;;;6.98;100.00;102087.28;5225434;28;21206;-74
2022/02/10 19:18:08;;;;;;;8.68;3.10;;;;;;;6.97;100.00;102092.56;5204522;28;20406;-72
2022/02/10 19:20:39;;;;;;;9.77;2.45;;;;;;;7.01;100.00;102097.56;5225980;28;20080;-72
2022/02/10 19:23:10;;;;;;;10.02;2.75;;;;;;;6.92;100.00;102084.13;5221264;28;20105;-75
2022/02/10 19:25:42;;;;;;;8.93;2.70;;;;;;;6.91;100.00;102087.66;5225323;28;20025;-75
2022/02/10 19:28:13;;;;;;;8.63;2.25;;;;;;;6.95;100.00;102091.81;5225443;28;20029;-75
2022/02/10 19:30:46;;;;;;;6.90;2.42;;;;;;;6.89;100.00;102079.06;5225133;28;20029;-74
2022/02/10 19:33:17;;;;;;;7.90;2.63;;;;;;;6.95;100.00;102084.00;5224434;28;20104;-76
2022/02/10 19:35:52;;;;;;;7.43;2.50;;;;;;;6.92;100.00;102078.94;5227285;28;20404;-74
2022/02/10 19:38:25;;;;;;;8.63;2.72;;;;;;;6.80;100.00;102065.59;5226578;28;20021;-73
2022/02/10 19:40:57;;;;;;;10.55;3.08;;;;;;;6.88;100.00;102082.59;5229551;28;20053;-74
2022/02/10 19:43:28;;;;;;;7.63;2.85;;;;;;;6.89;100.00;102089.50;5231501;28;20026;-75
2022/02/10 19:46:00;;;;;;;7.72;2.78;;;;;;;6.83;100.00;102083.69;5231661;28;20546;-75
2022/02/10 19:48:31;;;;;;;10.55;2.53;;;;;;;6.73;100.00;102069.41;5231755;28;20061;-75
2022/02/10 19:51:02;;;;;;;11.48;2.78;;;;;;;6.77;100.00;102088.34;5230821;28;20388;-75
2022/02/10 19:53:35;;;;;;;8.07;2.40;;;;;;;6.79;100.00;102089.97;5231391;28;20022;-75
2022/02/10 19:56:07;;;;;;;13.27;3.25;;;;;;;6.74;100.00;102081.53;5231864;28;20123;-75
2022/02/10 19:58:42;;;;;;;8.82;2.53;;;;;;;6.85;100.00;102094.00;5231949;28;20021;-74
2022/02/10 20:01:13;;;;;;;12.40;2.70;;;;;;;6.74;100.00;102091.09;5213084;28;20128;-75
2022/02/10 20:03:44;;;;;;;7.57;2.10;;;;;;;6.75;100.00;102090.19;5230582;28;20032;-75
2022/02/10 20:06:16;;;;;;;8.77;2.50;;;;;;;6.74;100.00;102093.69;5230765;28;20033;-75
2022/02/10 20:08:48;;;;;;;7.88;2.35;;;;;;;6.75;100.00;102095.41;5232119;28;20055;-75
2022/02/10 20:11:19;;;;;;;8.90;2.50;;;;;;;6.70;100.00;102084.34;5230604;28;20037;-75
2022/02/10 20:13:50;;;;;;;6.63;1.90;;;;;;;6.69;100.00;102086.09;5232494;28;20298;-74
2022/02/10 20:16:22;;;;;;;11.10;3.25;;;;;;;6.66;100.00;102090.63;5232897;28;20528;-75
2022/02/10 20:18:53;;;;;;;7.93;2.50;;;;;;;6.64;100.00;102084.66;5212968;28;20028;-75
2022/02/10 20:21:24;;;;;;;9.55;2.45;;;;;;;6.65;100.00;102083.72;5229948;28;20108;-74
2022/02/10 20:23:56;;;;;;;6.93;2.58;;;;;;;6.62;100.00;102089.09;5229541;28;20032;-75
2022/02/10 20:26:27;;;;;;;9.00;2.58;;;;;;;6.54;100.00;102087.69;5231172;28;20525;-75
2022/02/10 20:28:59;;;;;;;8.10;2.28;;;;;;;6.56;100.00;102091.06;5232670;28;20061;-75
2022/02/10 20:31:30;;;;;;;7.57;2.20;;;;;;;6.52;100.00;102089.53;5233383;28;20014;-75
2022/02/10 20:34:02;;;;;;;8.93;2.67;;;;;;;6.52;100.00;102093.91;5230066;28;20036;-75
2022/02/10 20:36:35;;;;;;;14.65;2.63;;;;;;;6.51;100.00;102100.84;5231619;28;20032;-74
2022/02/10 20:39:07;;;;;;;9.88;2.95;;;;;;;6.50;100.00;102098.31;5232605;28;20129;-75
2022/02/10 20:41:39;;;;;;;11.32;2.70;;;;;;;6.51;100.00;102098.25;5232508;28;20470;-75
2022/02/10 20:44:10;;;;;;;13.13;5.13;;;;;;;6.48;100.00;102102.78;5232091;28;20056;-75
2022/02/10 20:46:43;;;;;;;15.57;5.97;;;;;;;6.47;100.00;102103.66;5228713;28;20036;-72
2022/02/10 20:49:16;;;;;;;11.45;5.22;;;;;;;6.46;100.00;102102.84;5230768;28;20033;-75
2022/02/10 20:51:51;;;;;;;13.10;4.80;;;;;;;6.43;100.00;102100.38;5231121;28;20029;-75
2022/02/10 20:54:23;;;;;;;10.35;4.43;;;;;;;6.41;100.00;102117.00;5231281;28;20160;-75
2022/02/10 20:56:55;;;;;;;9.40;4.28;;;;;;;6.33;100.00;102105.19;5231185;28;20532;-76
2022/02/10 20:59:36;;;;;;;9.55;3.50;;;;;;;6.34;100.00;102112.06;5230756;28;20049;-74
2022/02/10 21:02:13;;;;;;;8.95;3.35;;;;;;;6.33;100.00;102105.19;5228588;28;20029;-76
2022/02/10 21:09:57;;;;;;;10.13;3.05;;;;;;;6.24;100.00;102103.00;5228542;28;20049;-76
2022/02/10 21:12:32;;;;;;;7.63;3.55;;;;;;;6.22;100.00;102106.59;5226405;28;20433;-76
2022/02/10 21:15:08;;;;;;;11.02;3.85;;;;;;;6.21;100.00;102102.28;5226660;28;20029;-75
2022/02/10 21:17:39;;;;;;;9.98;4.03;;;;;;;6.20;100.00;102103.22;5230632;28;20376;-73
2022/02/10 21:20:11;;;;;;;8.52;3.92;;;;;;;6.18;100.00;102095.50;5233416;28;20037;-76
2022/02/10 21:22:47;;;;;;;9.60;3.90;;;;;;;6.20;100.00;102101.44;5234531;28;20083;-74
2022/02/10 21:25:23;;;;;;;9.18;4.07;;;;;;;6.18;100.00;102097.25;5234877;28;20021;-76
2022/02/10 21:27:54;;;;;;;10.75;3.78;;;;;;;6.18;100.00;102105.06;5234252;28;20033;-76
2022/02/10 21:30:28;;;;;;;8.93;3.85;;;;;;;6.16;100.00;102105.09;5232655;28;20044;-75
2022/02/10 21:33:02;;;;;;;;;;;;;;;6.64;100.00;102110.69;5234880;28;20063;-75
2022/02/10 21:57:11;;;;;;;7.57;3.70;;;;;;;5.78;100.00;102115.44;5234105;28;20061;-76
2022/02/10 22:06:15;;;;;;;9.50;3.65;;;;;;;5.77;100.00;102116.38;5231864;28;20060;-76
2022/02/10 22:19:20;;;;;;;10.23;4.40;;;;;;;5.63;100.00;102130.88;5234740;28;20478;-75
2022/02/10 22:21:57;;;;;;;7.43;3.70;;;;;;;5.56;100.00;102125.94;5214619;28;20493;-73
2022/02/10 22:24:28;;;;;;;9.32;3.95;;;;;;;5.51;100.00;102122.72;5231450;28;20553;-75
2022/02/10 22:27:00;;;;;;;10.18;4.38;;;;;;;5.51;100.00;102125.31;5233938;28;20036;-75
2022/02/10 22:29:47;;;;;;;12.90;5.32;;;;;;;5.44;100.00;102123.88;5231463;28;20021;-75
2022/02/10 22:32:41;;;;;;;7.65;4.40;;;;;;;5.37;100.00;102127.63;5211078;28;20025;-75
2022/02/10 22:35:13;;;;;;;;;;;;;;;5.82;100.00;102123.97;5232645;28;20025;-75
2022/02/10 22:37:46;;;;;;;10.52;4.47;;;;;;;5.28;100.00;102122.84;5232638;28;19925;-75
2022/02/10 22:43:15;;;;;;;7.35;4.45;;;;;;;5.16;100.00;102120.78;5209681;28;20678;-76
2022/02/10 22:45:46;;;;;;;9.65;4.88;;;;;;;5.08;100.00;102119.34;5234275;28;20025;-76
2022/02/10 22:48:17;;;;;;;8.75;4.82;;;;;;;5.04;100.00;102120.38;5233042;28;20026;-75
2022/02/10 22:50:49;;;;;;;7.00;4.00;;;;;;;5.01;100.00;102125.69;5232120;28;20029;-75
2022/02/10 22:53:20;;;;;;;7.10;4.38;;;;;;;4.98;100.00;102130.16;5231543;28;20025;-75
2022/02/10 22:55:51;;;;;;;8.55;4.18;;;;;;;4.88;100.00;102116.69;5232509;28;20025;-76
2022/02/10 22:58:23;;;;;;;9.20;4.03;;;;;;;4.86;100.00;102118.53;5230408;28;20025;-75
2022/02/10 23:00:55;;;;;;;7.30;3.65;;;;;;;4.85;100.00;102122.03;5234226;28;20041;-74
2022/02/10 23:03:28;;;;;;;6.47;3.85;;;;;;;4.81;100.00;102120.44;5232460;28;20025;-76
2022/02/10 23:05:59;;;;;;;6.25;3.85;;;;;;;4.76;100.00;102125.81;5232451;28;20563;-75
2022/02/10 23:08:31;;;;;;;7.82;4.00;;;;;;;4.72;100.00;102132.03;5229184;28;20036;-75
2022/02/10 23:11:04;;;;;;;9.07;4.15;;;;;;;4.69;100.00;102123.53;5232923;28;20056;-75
2022/02/10 23:13:35;;;;;;;7.68;4.28;;;;;;;4.64;100.00;102132.34;5232514;28;20026;-73
2022/02/10 23:16:07;;;;;;;9.05;4.07;;;;;;;4.62;100.00;102126.38;5231474;28;20025;-76
2022/02/10 23:18:38;;;;;;;7.40;4.55;;;;;;;4.56;100.00;102131.81;5231549;28;20114;-75
2022/02/10 23:21:13;;;;;;;5.85;4.32;;;;;;;4.56;100.00;102141.34;5232219;28;20086;-75
2022/02/10 23:23:48;;;;;;;7.93;4.22;;;;;;;4.50;100.00;102137.22;5231704;28;20029;-75
2022/02/10 23:26:21;;;;;;;8.25;4.68;;;;;;;4.49;100.00;102145.91;5231777;28;20029;-76
2022/02/10 23:28:55;;;;;;;7.13;4.43;;;;;;;4.49;100.00;102134.69;5231445;28;20071;-75
2022/02/10 23:31:27;;;;;;;7.65;4.28;;;;;;;4.39;100.00;102147.16;5230464;28;20052;-74
2022/02/10 23:34:02;;;;;;;9.98;4.15;;;;;;;4.41;100.00;102144.53;5229821;28;20041;-76
2022/02/10 23:39:24;;;;;;;9.13;4.47;;;;;;;4.37;100.00;102154.19;5232295;28;20123;-75
2022/02/10 23:42:06;;;;;;;8.43;4.68;;;;;;;4.31;100.00;102149.22;5230112;28;20040;-76
2022/02/10 23:44:42;;;;;;;11.20;5.28;;;;;;;4.35;100.00;102140.41;5210870;28;20488;-75
2022/02/10 23:47:22;;;;;;;6.80;4.72;;;;;;;4.31;100.00;102151.78;5231027;28;20111;-75
2022/02/10 23:49:54;;;;;;;10.27;4.70;;;;;;;4.31;100.00;102151.78;5230434;28;20541;-74
2022/02/10 23:52:26;;;;;;;10.95;4.60;;;;;;;4.21;100.00;102153.06;5231533;28;20040;-75
2022/02/10 23:55:05;;;;;;;8.90;5.00;;;;;;;4.20;100.00;102151.34;5230681;28;20375;-75
2022/02/10 23:57:55;;;;;;;7.97;4.75;;;;;;;4.18;100.00;102153.19;5230902;28;20155;-75
